Time;durP1;ratioP1;P1;durP2;ratioP2;P2;SDS_P1;SDS_P2;PMS_P1;PMS_P2;Temp;Humidity;BMP_temperature;BMP_pressure;BME280_temperature;BME280_humidity;BME280_pressure;Samples;Min_cycle;Max_cycle;Signal;HPM_P1;HPM_P2
2022/05/26 00:00:54;;;;;;;1.90;1.80;;;;;;;;;;5075309;28;20418;-66
2022/05/26 00:03:20;;;;;;;1.40;1.30;;;;;;;;;;5075255;28;20478;-66
2022/05/26 00:05:46;;;;;;;7.20;2.17;;;;;;;;;;5075259;28;20414;-66
2022/05/26 00:08:12;;;;;;;1.60;1.03;;;;;;;;;;5075214;28;20502;-65
2022/05/26 00:10:38;;;;;;;1.63;1.53;;;;;;;;;;5075186;28;20426;-66
2022/05/26 00:13:05;;;;;;;1.33;1.23;;;;;;;;;;5075012;28;20469;-66
2022/05/26 00:15:31;;;;;;;2.57;1.07;;;;;;;;;;5075143;28;20516;-66
2022/05/26 00:17:58;;;;;;;1.93;1.63;;;;;;;;;;5075072;28;20460;-66
2022/05/26 00:20:24;;;;;;;1.57;1.50;;;;;;;;;;5074990;28;20476;-66
2022/05/26 00:22:50;;;;;;;4.80;1.93;;;;;;;;;;5073645;28;20450;-67
2022/05/26 00:25:16;;;;;;;1.87;1.87;;;;;;;;;;5074839;28;20450;-66
2022/05/26 00:27:42;;;;;;;1.80;1.63;;;;;;;;;;5074902;28;20896;-67
2022/05/26 00:30:08;;;;;;;2.20;2.00;;;;;;;;;;5074740;28;20498;-67
2022/05/26 00:32:34;;;;;;;1.40;1.40;;;;;;;;;;5073501;28;20418;-66
2022/05/26 00:35:00;;;;;;;1.50;1.50;;;;;;;;;;5073403;28;20422;-65
2022/05/26 00:37:26;;;;;;;0.90;0.90;;;;;;;;;;5074647;28;20406;-65
2022/05/26 00:39:52;;;;;;;1.60;1.60;;;;;;;;;;5074656;28;20428;-66
2022/05/26 00:42:18;;;;;;;1.37;1.37;;;;;;;;;;5074348;28;20459;-65
2022/05/26 00:44:44;;;;;;;1.57;1.57;;;;;;;;;;5074355;28;20465;-66
2022/05/26 00:47:10;;;;;;;1.57;1.10;;;;;;;;;;5074468;28;20430;-66
2022/05/26 00:49:51;;;;;;;1.67;1.63;;;;;;;;;;5074349;28;20410;-66
2022/05/26 00:52:19;;;;;;;1.10;1.10;;;;;;;;;;5073067;28;20416;-66
2022/05/26 00:54:46;;;;;;;1.60;1.50;;;;;;;;;;5074246;28;20418;-66
2022/05/26 00:57:18;;;;;;;1.57;1.47;;;;;;;;;;5074189;28;20909;-66
2022/05/26 00:59:54;;;;;;;2.10;1.70;;;;;;;;;;5072798;28;20790;-66
2022/05/26 01:02:22;;;;;;;1.67;1.67;;;;;;;;;;5074200;28;20430;-65
2022/05/26 01:04:55;;;;;;;1.90;1.80;;;;;;;;;;5074026;28;20647;-65
2022/05/26 01:07:21;;;;;;;10.40;1.80;;;;;;;;;;5074060;28;20409;-65
2022/05/26 01:09:47;;;;;;;1.40;1.40;;;;;;;;;;5073922;28;20501;-66
2022/05/26 01:12:13;;;;;;;1.47;1.37;;;;;;;;;;5072702;28;20422;-65
2022/05/26 01:14:47;;;;;;;1.40;1.30;;;;;;;;;;5073882;28;20437;-65
2022/05/26 01:17:17;;;;;;;1.53;1.43;;;;;;;;;;5073847;28;20415;-65
2022/05/26 01:19:46;;;;;;;1.27;1.27;;;;;;;;;;5073857;28;20402;-65
2022/05/26 01:22:12;;;;;;;1.40;1.40;;;;;;;;;;5073774;28;20409;-65
2022/05/26 01:24:41;;;;;;;2.23;1.27;;;;;;;;;;5073695;28;20553;-66
2022/05/26 01:27:22;;;;;;;1.10;1.10;;;;;;;;;;5073745;28;20409;-66
2022/05/26 01:29:48;;;;;;;1.60;1.50;;;;;;;;;;5073752;28;20504;-65
2022/05/26 01:32:26;;;;;;;1.50;1.50;;;;;;;;;;5072387;28;20555;-66
2022/05/26 01:34:58;;;;;;;1.10;1.10;;;;;;;;;;5072346;28;20920;-65
2022/05/26 01:37:36;;;;;;;2.60;1.40;;;;;;;;;;5073614;28;20452;-65
2022/05/26 01:40:24;;;;;;;1.50;1.40;;;;;;;;;;5073573;28;20446;-66
2022/05/26 01:42:59;;;;;;;1.60;1.50;;;;;;;;;;5072055;28;20564;-65
2022/05/26 01:45:28;;;;;;;1.87;1.77;;;;;;;;;;5073481;28;20429;-66
2022/05/26 01:48:14;;;;;;;5.80;1.53;;;;;;;;;;5073555;28;20404;-66
2022/05/26 01:50:43;;;;;;;1.53;1.50;;;;;;;;;;5073256;28;20820;-66
2022/05/26 01:53:25;;;;;;;1.57;1.57;;;;;;;;;;5073481;28;20398;-66
2022/05/26 01:56:00;;;;;;;1.60;1.60;;;;;;;;;;5073481;28;20406;-66
2022/05/26 01:58:40;;;;;;;1.50;1.50;;;;;;;;;;5073396;28;20413;-66
2022/05/26 02:01:18;;;;;;;1.20;1.20;;;;;;;;;;5073304;28;20432;-65
2022/05/26 02:03:46;;;;;;;3.40;1.57;;;;;;;;;;5073276;28;20506;-66
2022/05/26 02:06:12;;;;;;;10.00;1.97;;;;;;;;;;5072357;28;20468;-65
2022/05/26 02:08:41;;;;;;;1.63;1.53;;;;;;;;;;5073327;28;20398;-66
2022/05/26 02:11:14;;;;;;;1.43;1.43;;;;;;;;;;5073200;28;20795;-65
2022/05/26 02:13:43;;;;;;;1.63;1.63;;;;;;;;;;5073321;28;20410;-67
2022/05/26 02:16:22;;;;;;;1.63;1.63;;;;;;;;;;5071772;28;20947;-66
2022/05/26 02:18:51;;;;;;;2.20;1.53;;;;;;;;;;5073179;28;20451;-65
2022/05/26 02:21:24;;;;;;;1.20;1.20;;;;;;;;;;5073163;28;20433;-65
2022/05/26 02:23:50;;;;;;;1.30;1.30;;;;;;;;;;5073029;28;20504;-65
2022/05/26 02:26:16;;;;;;;1.70;1.70;;;;;;;;;;5071860;28;20465;-66
2022/05/26 02:31:29;;;;;;;2.50;2.30;;;;;;;;;;5073089;28;20440;-66
2022/05/26 02:33:56;;;;;;;2.63;2.10;;;;;;;;;;5073058;28;20513;-65
2022/05/26 02:36:24;;;;;;;1.80;1.70;;;;;;;;;;5072969;28;20900;-65
2022/05/26 02:38:50;;;;;;;1.97;1.97;;;;;;;;;;5072987;28;20410;-65
2022/05/26 02:41:16;;;;;;;2.70;2.10;;;;;;;;;;5072959;28;20398;-66
2022/05/26 02:43:42;;;;;;;3.17;2.00;;;;;;;;;;5072730;28;20482;-66
2022/05/26 02:46:23;;;;;;;2.23;2.13;;;;;;;;;;5072887;28;20413;-65
2022/05/26 02:49:08;;;;;;;2.97;2.33;;;;;;;;;;5073175;28;20398;-65
2022/05/26 02:51:41;;;;;;;2.40;2.27;;;;;;;;;;5072827;28;20410;-66
2022/05/26 02:54:07;;;;;;;1.90;1.90;;;;;;;;;;5072851;28;20407;-66
2022/05/26 02:56:40;;;;;;;2.90;2.70;;;;;;;;;;5072829;28;20897;-65
2022/05/26 02:59:12;;;;;;;1.57;1.57;;;;;;;;;;5072889;28;20764;-65
2022/05/26 03:01:49;;;;;;;2.20;2.20;;;;;;;;;;5072678;28;20429;-65
2022/05/26 03:04:18;;;;;;;3.23;1.87;;;;;;;;;;5076374;28;20473;-65
2022/05/26 03:06:47;;;;;;;2.03;1.93;;;;;;;;;;5076327;28;20437;-65
2022/05/26 03:09:14;;;;;;;2.27;1.60;;;;;;;;;;5076406;28;20434;-65
2022/05/26 03:11:48;;;;;;;1.87;1.73;;;;;;;;;;5076253;28;20402;-66
2022/05/26 03:14:14;;;;;;;1.73;1.63;;;;;;;;;;5076442;28;20437;-65
2022/05/26 03:16:41;;;;;;;1.47;1.47;;;;;;;;;;5075182;28;20773;-66
2022/05/26 03:19:07;;;;;;;1.43;1.43;;;;;;;;;;5076137;28;20957;-66
2022/05/26 03:21:33;;;;;;;1.67;1.53;;;;;;;;;;5076136;28;20414;-66
2022/05/26 03:23:59;;;;;;;5.80;2.17;;;;;;;;;;5076024;28;20469;-66
2022/05/26 03:26:25;;;;;;;1.70;1.60;;;;;;;;;;5076095;28;20391;-66
2022/05/26 03:28:51;;;;;;;2.43;1.97;;;;;;;;;;5076000;28;20410;-66
2022/05/26 03:31:17;;;;;;;1.40;1.40;;;;;;;;;;5075828;28;20417;-66
2022/05/26 03:41:57;;;;;;;1.97;1.77;;;;;;;;;;5075804;28;20465;-66
2022/05/26 03:44:24;;;;;;;1.30;1.23;;;;;;;;;;5074408;28;20466;-65
2022/05/26 03:46:51;;;;;;;1.80;1.30;;;;;;;;;;5074321;28;20908;-66
2022/05/26 03:49:17;;;;;;;1.47;1.47;;;;;;;;;;5075598;28;20809;-65
2022/05/26 03:51:43;;;;;;;1.63;1.63;;;;;;;;;;5075555;28;20877;-65
2022/05/26 03:54:09;;;;;;;4.80;1.27;;;;;;;;;;5075558;28;20417;-66
2022/05/26 03:56:35;;;;;;;1.80;1.80;;;;;;;;;;5075377;28;20456;-66
2022/05/26 03:59:01;;;;;;;1.60;1.30;;;;;;;;;;5074109;28;20422;-65
2022/05/26 04:01:27;;;;;;;4.00;1.73;;;;;;;;;;5075359;28;20874;-66
2022/05/26 04:03:55;;;;;;;1.43;1.23;;;;;;;;;;5075286;28;20948;-65
2022/05/26 04:06:21;;;;;;;1.30;1.30;;;;;;;;;;5073988;28;20430;-65
2022/05/26 04:08:47;;;;;;;2.83;1.47;;;;;;;;;;5075199;28;20405;-66
2022/05/26 04:11:13;;;;;;;1.40;1.40;;;;;;;;;;5075162;28;20410;-66
2022/05/26 04:13:39;;;;;;;2.83;1.97;;;;;;;;;;5074795;28;20394;-65
2022/05/26 04:16:06;;;;;;;1.43;1.33;;;;;;;;;;5074995;28;20421;-66
2022/05/26 04:18:32;;;;;;;1.60;1.50;;;;;;;;;;5075049;28;20412;-65
2022/05/26 04:21:08;;;;;;;1.87;1.27;;;;;;;;;;5074953;28;20407;-66
2022/05/26 04:23:34;;;;;;;1.40;1.40;;;;;;;;;;5074860;28;20469;-66
2022/05/26 04:26:00;;;;;;;1.50;1.40;;;;;;;;;;5075138;28;20755;-66
2022/05/26 04:28:26;;;;;;;21.00;16.87;;;;;;;;;;5074791;28;20733;-65
2022/05/26 04:30:52;;;;;;;13.93;12.53;;;;;;;;;;5074728;28;20473;-65
2022/05/26 04:33:18;;;;;;;9.53;8.60;;;;;;;;;;5074617;28;20446;-65
2022/05/26 04:35:44;;;;;;;3.27;2.00;;;;;;;;;;5074689;28;20422;-65
2022/05/26 04:38:11;;;;;;;2.83;2.60;;;;;;;;;;5074583;28;20414;-66
2022/05/26 04:40:37;;;;;;;4.43;4.10;;;;;;;;;;5074506;28;20415;-66
2022/05/26 04:43:03;;;;;;;4.80;4.50;;;;;;;;;;5074227;28;20462;-65
2022/05/26 04:45:30;;;;;;;4.23;4.07;;;;;;;;;;5074437;28;20454;-66
2022/05/26 04:47:56;;;;;;;5.13;2.07;;;;;;;;;;5074500;28;20884;-66
2022/05/26 04:50:23;;;;;;;2.33;2.23;;;;;;;;;;5074403;28;20416;-65
2022/05/26 04:52:49;;;;;;;2.60;1.93;;;;;;;;;;5074395;28;20408;-66
2022/05/26 04:55:15;;;;;;;3.70;2.40;;;;;;;;;;5074225;28;20410;-65
2022/05/26 04:57:41;;;;;;;1.90;1.63;;;;;;;;;;5074232;28;21016;-65
2022/05/26 05:00:10;;;;;;;1.90;1.60;;;;;;;;;;5074159;28;20473;-66
2022/05/26 05:02:36;;;;;;;1.40;1.40;;;;;;;;;;5074182;28;20782;-66
2022/05/26 05:05:03;;;;;;;1.30;1.30;;;;;;;;;;5074011;28;20509;-66
2022/05/26 05:07:29;;;;;;;4.00;1.57;;;;;;;;;;5074125;28;20399;-66
2022/05/26 05:09:55;;;;;;;3.87;1.77;;;;;;;;;;5072753;28;20816;-66
2022/05/26 05:12:23;;;;;;;2.60;1.57;;;;;;;;;;5073946;28;20404;-66
2022/05/26 05:14:50;;;;;;;1.50;1.40;;;;;;;;;;5073908;28;20972;-66
2022/05/26 05:17:17;;;;;;;1.87;1.70;;;;;;;;;;5073884;28;20919;-67
2022/05/26 05:19:44;;;;;;;1.50;1.40;;;;;;;;;;5073898;28;20402;-65
2022/05/26 05:22:24;;;;;;;5.10;1.63;;;;;;;;;;5073851;28;20408;-65
2022/05/26 05:24:54;;;;;;;3.47;1.40;;;;;;;;;;5073160;28;20473;-65
2022/05/26 05:27:23;;;;;;;1.40;1.30;;;;;;;;;;5073738;28;20404;-65
2022/05/26 05:29:50;;;;;;;1.77;1.37;;;;;;;;;;5072361;28;20426;-65
2022/05/26 05:32:27;;;;;;;6.63;1.70;;;;;;;;;;5073637;28;20459;-65
2022/05/26 05:34:56;;;;;;;1.70;1.60;;;;;;;;;;5073631;28;20411;-65
2022/05/26 05:37:22;;;;;;;1.37;1.37;;;;;;;;;;5073614;28;20413;-66
2022/05/26 05:39:48;;;;;;;1.60;1.50;;;;;;;;;;5073582;28;20907;-66
2022/05/26 05:42:14;;;;;;;1.67;1.57;;;;;;;;;;5073294;28;20504;-65
2022/05/26 05:44:41;;;;;;;4.40;1.80;;;;;;;;;;5073467;28;20476;-65
2022/05/26 05:47:08;;;;;;;1.70;1.60;;;;;;;;;;5073657;28;20448;-65
2022/05/26 05:49:34;;;;;;;4.30;4.10;;;;;;;;;;5073513;28;20847;-65
2022/05/26 05:52:09;;;;;;;1.80;1.40;;;;;;;;;;5073480;28;20407;-65
2022/05/26 05:54:35;;;;;;;2.10;1.20;;;;;;;;;;5073412;28;20503;-66
2022/05/26 05:57:01;;;;;;;10.03;1.80;;;;;;;;;;5073438;28;20408;-65
2022/05/26 05:59:27;;;;;;;1.33;1.33;;;;;;;;;;5073411;28;20765;-65
2022/05/26 06:01:54;;;;;;;2.50;1.43;;;;;;;;;;5073334;28;20424;-66
2022/05/26 06:04:20;;;;;;;1.37;1.20;;;;;;;;;;5073345;28;20506;-66
2022/05/26 06:06:46;;;;;;;1.83;1.40;;;;;;;;;;5073356;28;20423;-66
2022/05/26 06:09:16;;;;;;;2.43;1.47;;;;;;;;;;5073289;28;20420;-65
2022/05/26 06:11:42;;;;;;;1.70;1.20;;;;;;;;;;5073357;28;20925;-66
2022/05/26 06:14:08;;;;;;;1.10;1.00;;;;;;;;;;5073273;28;20412;-66
2022/05/26 06:16:34;;;;;;;1.53;1.30;;;;;;;;;;5073126;28;20931;-65
2022/05/26 06:19:00;;;;;;;2.30;1.20;;;;;;;;;;5073182;28;20896;-66
2022/05/26 06:21:27;;;;;;;4.13;1.50;;;;;;;;;;5073246;28;20416;-65
2022/05/26 06:23:56;;;;;;;2.33;0.90;;;;;;;;;;5073042;28;20472;-67
2022/05/26 06:26:22;;;;;;;4.97;4.37;;;;;;;;;;5073057;28;20756;-65
2022/05/26 06:31:33;;;;;;;1.30;1.10;;;;;;;;;;5073004;28;20416;-65
2022/05/26 06:39:28;;;;;;;1.70;0.70;;;;;;;;;;5077239;28;20767;-66
2022/05/26 06:42:06;;;;;;;1.20;1.03;;;;;;;;;;5076666;28;20405;-66
2022/05/26 06:44:37;;;;;;;1.20;1.10;;;;;;;;;;5076736;28;20475;-65
2022/05/26 06:47:04;;;;;;;1.70;1.00;;;;;;;;;;5076651;28;20947;-64
2022/05/26 06:49:30;;;;;;;1.27;1.10;;;;;;;;;;5075366;28;20474;-65
2022/05/26 06:51:56;;;;;;;1.03;1.03;;;;;;;;;;5076625;28;20462;-66
2022/05/26 06:54:22;;;;;;;1.10;1.10;;;;;;;;;;5076585;28;20410;-65
2022/05/26 06:56:48;;;;;;;1.10;1.10;;;;;;;;;;5076618;28;20488;-66
2022/05/26 06:59:14;;;;;;;4.43;1.13;;;;;;;;;;5076472;28;20424;-65
2022/05/26 07:01:40;;;;;;;2.00;1.07;;;;;;;;;;5076488;28;20448;-66
2022/05/26 07:04:06;;;;;;;1.83;1.20;;;;;;;;;;5076321;28;20469;-66
2022/05/26 07:06:32;;;;;;;4.00;1.23;;;;;;;;;;5076408;28;20417;-65
2022/05/26 07:08:58;;;;;;;2.40;1.00;;;;;;;;;;5075338;28;20799;-66
2022/05/26 07:11:24;;;;;;;1.20;0.97;;;;;;;;;;5076295;28;20407;-66
2022/05/26 07:13:50;;;;;;;3.80;1.30;;;;;;;;;;5076232;28;20780;-65
2022/05/26 07:16:16;;;;;;;1.20;1.10;;;;;;;;;;5076122;28;20421;-64
2022/05/26 07:18:42;;;;;;;2.67;0.90;;;;;;;;;;5076083;28;20411;-66
2022/05/26 07:21:09;;;;;;;7.00;0.90;;;;;;;;;;5076015;28;20454;-64
2022/05/26 07:23:35;;;;;;;1.77;1.23;;;;;;;;;;5076017;28;20462;-65
2022/05/26 07:26:05;;;;;;;1.83;1.10;;;;;;;;;;5075999;28;20947;-68
2022/05/26 07:28:32;;;;;;;4.87;0.90;;;;;;;;;;5076002;28;21021;-66
2022/05/26 07:30:58;;;;;;;1.07;0.90;;;;;;;;;;5074530;28;20447;-66
2022/05/26 07:33:24;;;;;;;4.10;2.60;;;;;;;;;;5075808;28;20472;-65
2022/05/26 07:35:50;;;;;;;1.57;1.17;;;;;;;;;;5075774;28;20405;-64
2022/05/26 07:41:19;;;;;;;1.63;0.97;;;;;;;;;;5075764;28;20422;-63
2022/05/26 07:43:48;;;;;;;1.30;1.20;;;;;;;;;;5075440;28;20490;-65
2022/05/26 07:46:14;;;;;;;2.60;0.90;;;;;;;;;;5075427;28;20503;-66
2022/05/26 07:48:40;;;;;;;1.20;1.10;;;;;;;;;;5075057;28;20770;-66
2022/05/26 07:51:06;;;;;;;1.57;1.00;;;;;;;;;;5075737;28;20414;-63
2022/05/26 07:53:32;;;;;;;1.07;1.07;;;;;;;;;;5075425;28;20414;-63
2022/05/26 07:56:00;;;;;;;6.73;1.00;;;;;;;;;;5075488;28;20412;-63
2022/05/26 07:58:26;;;;;;;2.40;0.70;;;;;;;;;;5075424;28;20402;-64
2022/05/26 08:00:53;;;;;;;0.73;0.60;;;;;;;;;;5075549;28;20518;-64
2022/05/26 08:03:19;;;;;;;0.60;0.60;;;;;;;;;;5075478;28;20507;-64
2022/05/26 08:05:45;;;;;;;1.83;0.80;;;;;;;;;;5075291;28;20420;-64
2022/05/26 08:08:11;;;;;;;0.80;0.80;;;;;;;;;;5073996;28;20439;-64
2022/05/26 08:10:38;;;;;;;0.60;0.60;;;;;;;;;;5075153;28;20415;-63
2022/05/26 08:13:04;;;;;;;0.80;0.80;;;;;;;;;;5075169;28;20405;-64
2022/05/26 08:15:31;;;;;;;0.60;0.60;;;;;;;;;;5075352;28;20422;-65
2022/05/26 08:17:57;;;;;;;0.97;0.97;;;;;;;;;;5075008;28;20419;-63
2022/05/26 08:20:23;;;;;;;1.53;0.90;;;;;;;;;;5075031;28;20424;-64
2022/05/26 08:22:49;;;;;;;1.07;1.07;;;;;;;;;;5074975;28;20464;-67
2022/05/26 08:25:15;;;;;;;2.73;0.77;;;;;;;;;;5074839;28;20932;-64
2022/05/26 08:27:41;;;;;;;1.33;1.00;;;;;;;;;;5074866;28;20406;-68
2022/05/26 08:30:07;;;;;;;0.60;0.60;;;;;;;;;;5074793;28;20758;-63
2022/05/26 08:32:33;;;;;;;1.47;1.00;;;;;;;;;;5074664;28;20410;-63
2022/05/26 08:35:01;;;;;;;1.47;0.80;;;;;;;;;;5074747;28;20942;-63
2022/05/26 08:37:27;;;;;;;0.77;0.73;;;;;;;;;;5074685;28;20496;-64
2022/05/26 08:39:53;;;;;;;1.07;0.60;;;;;;;;;;5073299;28;20516;-64
2022/05/26 08:42:24;;;;;;;4.43;0.93;;;;;;;;;;5074367;28;20474;-65
2022/05/26 08:44:50;;;;;;;0.97;0.97;;;;;;;;;;5074749;28;20609;-65
2022/05/26 08:47:20;;;;;;;2.20;0.80;;;;;;;;;;5074600;28;20481;-63
2022/05/26 08:49:56;;;;;;;0.93;0.73;;;;;;;;;;5074343;28;20478;-64
2022/05/26 08:52:33;;;;;;;2.60;2.23;;;;;;;;;;5074393;28;20398;-64
2022/05/26 08:55:15;;;;;;;2.70;0.80;;;;;;;;;;5074434;28;20390;-64
2022/05/26 08:57:43;;;;;;;0.93;0.93;;;;;;;;;;5074296;28;20413;-64
2022/05/26 09:00:13;;;;;;;0.70;0.70;;;;;;;;;;5073189;28;20411;-64
2022/05/26 09:02:39;;;;;;;0.90;0.90;;;;;;;;;;5074245;28;20403;-64
2022/05/26 09:05:08;;;;;;;1.43;0.70;;;;;;;;;;5074176;28;20481;-65
2022/05/26 09:13:12;;;;;;;0.77;0.77;;;;;;;;;;5074290;28;20951;-64
2022/05/26 09:15:38;;;;;;;0.70;0.70;;;;;;;;;;5072625;28;20588;-64
2022/05/26 09:18:31;;;;;;;0.90;0.90;;;;;;;;;;5074123;28;20411;-64
2022/05/26 09:21:11;;;;;;;4.93;0.80;;;;;;;;;;5071013;28;20445;-64
2022/05/26 09:23:39;;;;;;;3.10;0.80;;;;;;;;;;5073758;28;20460;-64
2022/05/26 09:26:06;;;;;;;2.10;0.90;;;;;;;;;;5073791;28;20464;-64
2022/05/26 09:28:35;;;;;;;2.93;1.47;;;;;;;;;;5074038;28;20765;-64
2022/05/26 09:31:21;;;;;;;4.83;0.90;;;;;;;;;;5073718;28;20910;-64
2022/05/26 09:33:59;;;;;;;1.23;0.70;;;;;;;;;;5073950;28;20406;-63
2022/05/26 09:36:28;;;;;;;1.70;0.73;;;;;;;;;;5073594;28;20404;-63
2022/05/26 09:38:54;;;;;;;3.40;1.00;;;;;;;;;;5073585;28;20845;-64
2022/05/26 09:41:20;;;;;;;1.80;0.70;;;;;;;;;;5073533;28;20442;-64
2022/05/26 09:43:48;;;;;;;3.27;0.87;;;;;;;;;;5073228;28;20514;-64
2022/05/26 09:46:16;;;;;;;0.70;0.63;;;;;;;;;;5073590;28;20424;-63
2022/05/26 09:48:43;;;;;;;0.83;0.70;;;;;;;;;;5073573;28;20395;-63
2022/05/26 09:51:12;;;;;;;3.77;3.47;;;;;;;;;;5073440;28;20406;-64
2022/05/26 09:53:40;;;;;;;1.53;0.90;;;;;;;;;;5073626;28;20433;-64
2022/05/26 09:56:06;;;;;;;3.70;0.90;;;;;;;;;;5071984;28;20468;-65
2022/05/26 09:58:34;;;;;;;2.93;1.00;;;;;;;;;;5073320;28;20906;-64
2022/05/26 10:01:01;;;;;;;1.43;0.90;;;;;;;;;;5073593;28;20415;-64
2022/05/26 10:03:27;;;;;;;2.07;0.80;;;;;;;;;;5073293;28;20448;-64
2022/05/26 10:06:15;;;;;;;0.80;0.80;;;;;;;;;;5073356;28;20416;-64
2022/05/26 10:08:50;;;;;;;2.93;0.70;;;;;;;;;;5073518;28;20430;-63
2022/05/26 10:11:35;;;;;;;0.70;0.70;;;;;;;;;;5073888;28;20416;-64
2022/05/26 10:14:07;;;;;;;0.80;0.80;;;;;;;;;;5077342;28;20388;-65
2022/05/26 10:16:33;;;;;;;1.07;1.07;;;;;;;;;;5075990;28;20428;-66
2022/05/26 10:19:17;;;;;;;1.33;0.77;;;;;;;;;;5077324;28;20408;-65
2022/05/26 10:21:50;;;;;;;0.80;0.80;;;;;;;;;;5077288;28;20423;-65
2022/05/26 10:24:25;;;;;;;1.17;0.60;;;;;;;;;;5077152;28;20469;-64
2022/05/26 10:27:00;;;;;;;1.73;0.60;;;;;;;;;;5077173;28;20935;-65
2022/05/26 10:29:35;;;;;;;2.50;0.60;;;;;;;;;;5075740;28;20414;-65
2022/05/26 10:32:01;;;;;;;6.23;0.70;;;;;;;;;;5076975;28;20913;-64
2022/05/26 10:34:35;;;;;;;1.10;1.10;;;;;;;;;;5076977;28;20443;-64
2022/05/26 10:37:05;;;;;;;2.13;0.80;;;;;;;;;;5076900;28;20760;-65
2022/05/26 10:39:43;;;;;;;0.80;0.80;;;;;;;;;;5077224;28;20408;-65
2022/05/26 10:42:15;;;;;;;0.90;0.83;;;;;;;;;;5076673;28;20556;-64
2022/05/26 10:44:52;;;;;;;3.07;1.40;;;;;;;;;;5076869;28;20837;-65
2022/05/26 10:47:28;;;;;;;1.23;0.90;;;;;;;;;;5076631;28;20407;-65
2022/05/26 10:50:02;;;;;;;1.20;1.20;;;;;;;;;;5075302;28;20918;-65
2022/05/26 10:52:32;;;;;;;1.17;0.87;;;;;;;;;;5076583;28;20411;-64
2022/05/26 10:55:07;;;;;;;0.80;0.80;;;;;;;;;;5076484;28;20913;-64
2022/05/26 10:57:44;;;;;;;1.10;1.10;;;;;;;;;;5076703;28;20498;-64
2022/05/26 11:00:22;;;;;;;2.87;0.77;;;;;;;;;;5076514;28;20417;-64
2022/05/26 11:03:07;;;;;;;1.13;1.03;;;;;;;;;;5076567;28;20417;-64
2022/05/26 11:05:39;;;;;;;6.73;1.37;;;;;;;;;;5076361;28;20424;-64
2022/05/26 11:08:09;;;;;;;2.10;0.80;;;;;;;;;;5076288;28;20408;-65
2022/05/26 11:10:37;;;;;;;0.80;0.80;;;;;;;;;;5075122;28;20425;-65
2022/05/26 11:13:11;;;;;;;0.60;0.60;;;;;;;;;;5076255;28;20473;-64
2022/05/26 11:18:36;;;;;;;1.87;1.30;;;;;;;;;;5076275;28;20891;-65
2022/05/26 11:21:02;;;;;;;1.30;1.30;;;;;;;;;;5076174;28;20856;-65
2022/05/26 11:23:31;;;;;;;1.63;1.53;;;;;;;;;;5074970;28;20456;-64
2022/05/26 11:25:59;;;;;;;1.33;1.10;;;;;;;;;;5076113;28;20415;-64
2022/05/26 11:28:29;;;;;;;1.80;1.70;;;;;;;;;;5074774;28;20447;-64
2022/05/26 11:36:33;;;;;;;1.47;0.80;;;;;;;;;;5076460;28;20462;-65
2022/05/26 11:39:01;;;;;;;1.00;1.00;;;;;;;;;;5076208;28;20427;-65
2022/05/26 11:41:56;;;;;;;2.40;0.80;;;;;;;;;;5075863;28;20401;-64
2022/05/26 11:44:43;;;;;;;0.60;0.60;;;;;;;;;;5066963;28;20487;-64
2022/05/26 11:47:24;;;;;;;2.13;0.70;;;;;;;;;;5075718;28;20468;-64
2022/05/26 11:49:51;;;;;;;1.10;1.10;;;;;;;;;;5075611;28;20419;-64
2022/05/26 11:52:35;;;;;;;0.80;0.80;;;;;;;;;;5074465;28;20432;-64
2022/05/26 11:55:02;;;;;;;0.90;0.90;;;;;;;;;;5075672;28;20899;-66
2022/05/26 11:57:35;;;;;;;5.93;0.93;;;;;;;;;;5075414;28;20772;-65
2022/05/26 12:00:16;;;;;;;0.50;0.50;;;;;;;;;;5075382;28;20404;-65
2022/05/26 12:02:43;;;;;;;2.70;0.70;;;;;;;;;;5075306;28;20400;-64
2022/05/26 12:05:27;;;;;;;2.90;0.80;;;;;;;;;;5075310;28;20831;-64
2022/05/26 12:07:53;;;;;;;1.03;0.80;;;;;;;;;;5075193;28;20429;-64
2022/05/26 12:10:21;;;;;;;1.77;0.73;;;;;;;;;;5075107;28;20436;-65
2022/05/26 12:12:47;;;;;;;1.13;0.90;;;;;;;;;;5075219;28;20470;-65
2022/05/26 12:15:18;;;;;;;0.93;0.70;;;;;;;;;;5075069;28;20406;-65
2022/05/26 12:17:51;;;;;;;3.30;0.83;;;;;;;;;;5075105;28;20427;-65
2022/05/26 12:20:17;;;;;;;0.97;0.97;;;;;;;;;;5075040;28;20437;-65
2022/05/26 12:22:52;;;;;;;0.73;0.73;;;;;;;;;;5074954;28;20449;-65
2022/05/26 12:25:18;;;;;;;1.90;0.80;;;;;;;;;;5074899;28;20547;-64
2022/05/26 12:27:51;;;;;;;1.20;0.83;;;;;;;;;;5074912;28;20439;-66
2022/05/26 12:30:34;;;;;;;2.73;0.70;;;;;;;;;;5074790;28;20418;-65
2022/05/26 12:33:01;;;;;;;0.67;0.67;;;;;;;;;;5074763;28;20489;-64
2022/05/26 12:35:27;;;;;;;0.93;0.80;;;;;;;;;;5074460;28;20410;-65
2022/05/26 12:38:22;;;;;;;7.07;0.70;;;;;;;;;;5074669;28;20408;-66
2022/05/26 12:40:55;;;;;;;2.63;1.00;;;;;;;;;;5073514;28;20470;-64
2022/05/26 12:43:27;;;;;;;2.77;0.90;;;;;;;;;;5074340;28;20498;-65
2022/05/26 12:45:56;;;;;;;3.90;1.00;;;;;;;;;;5073216;28;20442;-65
2022/05/26 12:48:26;;;;;;;0.90;0.90;;;;;;;;;;5074436;28;20407;-64
2022/05/26 12:50:52;;;;;;;1.33;0.70;;;;;;;;;;5074369;28;20471;-65
2022/05/26 12:53:20;;;;;;;0.80;0.80;;;;;;;;;;5073037;28;20773;-66
2022/05/26 12:55:46;;;;;;;0.80;0.80;;;;;;;;;;5074332;28;20767;-65
2022/05/26 12:58:12;;;;;;;1.67;1.17;;;;;;;;;;5074284;28;20417;-64
2022/05/26 13:00:46;;;;;;;1.27;1.17;;;;;;;;;;5074070;28;20770;-65
2022/05/26 13:03:35;;;;;;;2.80;0.87;;;;;;;;;;5074078;28;20410;-64
2022/05/26 13:06:01;;;;;;;0.70;0.70;;;;;;;;;;5068649;28;20923;-64
2022/05/26 13:08:28;;;;;;;1.87;0.93;;;;;;;;;;5074115;28;20419;-66
2022/05/26 13:10:56;;;;;;;2.30;1.03;;;;;;;;;;5073917;28;20798;-64
2022/05/26 13:13:25;;;;;;;9.53;1.00;;;;;;;;;;5073904;28;20426;-64
2022/05/26 13:15:51;;;;;;;0.87;0.80;;;;;;;;;;5073735;28;20412;-64
2022/05/26 13:18:22;;;;;;;1.57;1.03;;;;;;;;;;5073654;28;20415;-64
2022/05/26 13:20:48;;;;;;;1.40;1.00;;;;;;;;;;5073710;28;20433;-63
2022/05/26 13:23:28;;;;;;;1.40;0.87;;;;;;;;;;5073680;28;20401;-66
2022/05/26 13:25:54;;;;;;;1.37;1.07;;;;;;;;;;5073693;28;20415;-64
2022/05/26 13:28:29;;;;;;;1.53;0.93;;;;;;;;;;5072704;28;20768;-63
2022/05/26 13:33:42;;;;;;;1.73;0.67;;;;;;;;;;5073745;28;20487;-64
2022/05/26 13:36:15;;;;;;;1.03;0.90;;;;;;;;;;5073593;28;20903;-64
2022/05/26 13:38:48;;;;;;;2.30;1.03;;;;;;;;;;5073490;28;20466;-66
2022/05/26 13:41:25;;;;;;;0.87;0.87;;;;;;;;;;5073552;28;20412;-63
2022/05/26 13:43:51;;;;;;;0.80;0.80;;;;;;;;;;5073442;28;20597;-64
2022/05/26 13:46:25;;;;;;;2.00;0.83;;;;;;;;;;5072873;28;20419;-64
2022/05/26 13:48:55;;;;;;;0.80;0.80;;;;;;;;;;5073762;28;20409;-64
2022/05/26 13:51:23;;;;;;;0.60;0.60;;;;;;;;;;5073404;28;20417;-63
2022/05/26 13:53:56;;;;;;;1.77;0.87;;;;;;;;;;5073480;28;20413;-65
2022/05/26 13:56:33;;;;;;;2.23;0.87;;;;;;;;;;5073414;28;20456;-64
2022/05/26 13:59:01;;;;;;;0.90;0.90;;;;;;;;;;5072108;28;20424;-64
2022/05/26 14:01:28;;;;;;;1.60;1.00;;;;;;;;;;5073322;28;20826;-64
2022/05/26 14:03:56;;;;;;;0.83;0.83;;;;;;;;;;5073216;28;20465;-66
2022/05/26 14:06:22;;;;;;;1.23;0.90;;;;;;;;;;5073296;28;20907;-65
2022/05/26 14:08:50;;;;;;;0.93;0.90;;;;;;;;;;5073292;28;20577;-64
2022/05/26 14:11:34;;;;;;;1.30;1.03;;;;;;;;;;5073217;28;20177;-63
2022/05/26 14:14:20;;;;;;;2.00;0.87;;;;;;;;;;5073216;28;20408;-63
2022/05/26 14:16:48;;;;;;;0.90;0.90;;;;;;;;;;5073020;28;20464;-64
2022/05/26 14:19:16;;;;;;;0.80;0.80;;;;;;;;;;5073485;28;20413;-63
2022/05/26 14:21:48;;;;;;;2.93;0.80;;;;;;;;;;5073151;28;20412;-63
2022/05/26 14:24:20;;;;;;;0.70;0.70;;;;;;;;;;5071724;28;20476;-64
2022/05/26 14:27:01;;;;;;;0.73;0.73;;;;;;;;;;5073104;28;20400;-64
2022/05/26 14:29:27;;;;;;;0.90;0.70;;;;;;;;;;5071824;28;20465;-67
2022/05/26 14:31:57;;;;;;;0.80;0.80;;;;;;;;;;5073039;28;20469;-67
2022/05/26 14:34:25;;;;;;;1.63;0.80;;;;;;;;;;5073088;28;20413;-65
2022/05/26 14:36:52;;;;;;;5.97;0.90;;;;;;;;;;5071793;28;20790;-63
2022/05/26 14:39:18;;;;;;;1.80;1.00;;;;;;;;;;5073019;28;20415;-64
2022/05/26 14:41:44;;;;;;;0.90;0.90;;;;;;;;;;5072970;28;20491;-64
2022/05/26 14:44:11;;;;;;;1.13;0.90;;;;;;;;;;5072964;28;20894;-63
2022/05/26 14:46:38;;;;;;;1.13;1.13;;;;;;;;;;5072882;28;20949;-64
2022/05/26 14:49:04;;;;;;;1.03;0.93;;;;;;;;;;5072932;28;20434;-66
2022/05/26 14:51:31;;;;;;;0.80;0.80;;;;;;;;;;5072683;28;20817;-75
2022/05/26 14:56:43;;;;;;;0.87;0.87;;;;;;;;;;5072880;28;20397;-63
2022/05/26 14:59:10;;;;;;;2.23;0.80;;;;;;;;;;5074969;28;20519;-68
2022/05/26 15:01:36;;;;;;;2.30;0.70;;;;;;;;;;5076824;28;20412;-68
2022/05/26 15:04:02;;;;;;;0.50;0.50;;;;;;;;;;5076708;28;20471;-67
2022/05/26 15:06:36;;;;;;;0.73;0.73;;;;;;;;;;5076745;28;20411;-65
2022/05/26 15:09:02;;;;;;;0.63;0.63;;;;;;;;;;5076575;28;20397;-65
2022/05/26 15:11:29;;;;;;;3.40;0.60;;;;;;;;;;5076418;28;20444;-65
2022/05/26 15:13:56;;;;;;;1.40;0.80;;;;;;;;;;5076183;28;20403;-67
2022/05/26 15:16:24;;;;;;;1.50;0.90;;;;;;;;;;5074868;28;20421;-67
2022/05/26 15:18:50;;;;;;;3.03;1.00;;;;;;;;;;5076146;28;20396;-67
2022/05/26 15:21:16;;;;;;;0.80;0.80;;;;;;;;;;5076123;28;20482;-66
2022/05/26 15:23:42;;;;;;;0.70;0.67;;;;;;;;;;5076011;28;20544;-66
2022/05/26 15:26:09;;;;;;;0.77;0.77;;;;;;;;;;5076027;28;20437;-66
2022/05/26 15:28:36;;;;;;;0.90;0.80;;;;;;;;;;5075903;28;20449;-67
2022/05/26 15:31:02;;;;;;;0.90;0.90;;;;;;;;;;5076091;28;20427;-67
2022/05/26 15:33:28;;;;;;;0.77;0.77;;;;;;;;;;5075850;28;20398;-66
2022/05/26 15:35:55;;;;;;;1.13;0.80;;;;;;;;;;5075730;28;20443;-65
2022/05/26 15:38:21;;;;;;;0.90;0.80;;;;;;;;;;5076007;28;20464;-66